sensor_id;sensor_type;location;lat;lon;timestamp;temperature;humidity
19586;DHT22;9939;49.246;9.106;2022-12-18T00:01:40;-8.60;99.90
19586;DHT22;9939;49.246;9.106;2022-12-18T00:04:10;-8.70;99.90
19586;DHT22;9939;49.246;9.106;2022-12-18T00:06:42;-8.60;99.90
19586;DHT22;9939;49.246;9.106;2022-12-18T00:09:10;-8.70;99.90
19586;DHT22;9939;49.246;9.106;2022-12-18T00:11:37;-8.70;99.90
19586;DHT22;9939;49.246;9.106;2022-12-18T00:14:03;-8.70;99.90
19586;DHT22;9939;49.246;9.106;2022-12-18T00:16:30;-8.60;99.90
19586;DHT22;9939;49.246;9.106;2022-12-18T00:18:59;-8.60;99.90
19586;DHT22;9939;49.246;9.106;2022-12-18T00:21:27;-8.50;99.90
19586;DHT22;9939;49.246;9.106;2022-12-18T00:23:54;-8.40;99.90
19586;DHT22;9939;49.246;9.106;2022-12-18T00:26:22;-8.30;99.90
19586;DHT22;9939;49.246;9.106;2022-12-18T00:28:52;-8.40;99.90
19586;DHT22;9939;49.246;9.106;2022-12-18T00:31:20;-8.40;99.90
19586;DHT22;9939;49.246;9.106;2022-12-18T00:33:48;-8.30;99.90
19586;DHT22;9939;49.246;9.106;2022-12-18T00:36:28;-8.40;99.90
19586;DHT22;9939;49.246;9.106;2022-12-18T00:38:56;-8.40;99.90
19586;DHT22;9939;49.246;9.106;2022-12-18T00:41:23;-8.30;99.90
19586;DHT22;9939;49.246;9.106;2022-12-18T00:44:09;-8.30;99.90
19586;DHT22;9939;49.246;9.106;2022-12-18T00:46:37;-8.20;99.90
19586;DHT22;9939;49.246;9.106;2022-12-18T00:49:03;-8.10;99.90
19586;DHT22;9939;49.246;9.106;2022-12-18T00:51:30;-8.00;99.90
19586;DHT22;9939;49.246;9.106;2022-12-18T00:53:57;-8.10;99.90
19586;DHT22;9939;49.246;9.106;2022-12-18T00:56:24;-8.10;99.90
19586;DHT22;9939;49.246;9.106;2022-12-18T00:58:52;-8.10;99.90
19586;DHT22;9939;49.246;9.106;2022-12-18T01:01:19;-8.30;99.90
19586;DHT22;9939;49.246;9.106;2022-12-18T01:03:46;-8.40;99.90
19586;DHT22;9939;49.246;9.106;2022-12-18T01:06:15;-8.50;99.90
19586;DHT22;9939;49.246;9.106;2022-12-18T01:08:42;-8.60;99.90
19586;DHT22;9939;49.246;9.106;2022-12-18T01:11:12;-8.40;99.90
19586;DHT22;9939;49.246;9.106;2022-12-18T01:13:40;-8.40;99.90
19586;DHT22;9939;49.246;9.106;2022-12-18T01:16:07;-8.40;99.90
19586;DHT22;9939;49.246;9.106;2022-12-18T01:18:35;-8.30;99.90
19586;DHT22;9939;49.246;9.106;2022-12-18T01:21:08;-8.20;99.90
19586;DHT22;9939;49.246;9.106;2022-12-18T01:23:36;-8.20;99.90
19586;DHT22;9939;49.246;9.106;2022-12-18T01:26:04;-8.10;99.90
19586;DHT22;9939;49.246;9.106;2022-12-18T01:28:34;-8.00;99.90
19586;DHT22;9939;49.246;9.106;2022-12-18T01:31:11;-7.90;99.90
19586;DHT22;9939;49.246;9.106;2022-12-18T01:33:38;-7.90;99.90
19586;DHT22;9939;49.246;9.106;2022-12-18T01:36:06;-7.90;99.90
19586;DHT22;9939;49.246;9.106;2022-12-18T01:38:33;-7.90;99.90
19586;DHT22;9939;49.246;9.106;2022-12-18T01:41:00;-8.00;99.90
19586;DHT22;9939;49.246;9.106;2022-12-18T01:46:09;-8.10;99.90
19586;DHT22;9939;49.246;9.106;2022-12-18T01:48:36;-8.10;99.90
19586;DHT22;9939;49.246;9.106;2022-12-18T01:51:03;-8.20;99.90
19586;DHT22;9939;49.246;9.106;2022-12-18T01:53:31;-8.10;99.90
19586;DHT22;9939;49.246;9.106;2022-12-18T01:55:58;-8.10;99.90
19586;DHT22;9939;49.246;9.106;2022-12-18T01:58:41;-8.00;99.90
19586;DHT22;9939;49.246;9.106;2022-12-18T02:01:10;-8.00;99.90
19586;DHT22;9939;49.246;9.106;2022-12-18T02:03:37;-8.00;99.90
19586;DHT22;9939;49.246;9.106;2022-12-18T02:13:36;-8.00;99.90
19586;DHT22;9939;49.246;9.106;2022-12-18T02:16:08;-8.10;99.90
19586;DHT22;9939;49.246;9.106;2022-12-18T02:18:40;-8.00;99.90
19586;DHT22;9939;49.246;9.106;2022-12-18T02:26:25;-8.00;99.90
19586;DHT22;9939;49.246;9.106;2022-12-18T02:28:55;-8.00;99.90
19586;DHT22;9939;49.246;9.106;2022-12-18T02:31:29;-8.00;99.90
19586;DHT22;9939;49.246;9.106;2022-12-18T02:33:58;-7.90;99.90
19586;DHT22;9939;49.246;9.106;2022-12-18T02:36:27;-7.90;99.90
19586;DHT22;9939;49.246;9.106;2022-12-18T02:38:55;-7.90;99.90
19586;DHT22;9939;49.246;9.106;2022-12-18T02:41:23;-7.90;99.90
19586;DHT22;9939;49.246;9.106;2022-12-18T02:44:10;-7.80;99.90
19586;DHT22;9939;49.246;9.106;2022-12-18T02:47:12;-7.80;99.90
19586;DHT22;9939;49.246;9.106;2022-12-18T02:49:36;-7.70;99.90
19586;DHT22;9939;49.246;9.106;2022-12-18T02:52:22;-7.80;99.90
19586;DHT22;9939;49.246;9.106;2022-12-18T02:57:40;-7.60;99.90
19586;DHT22;9939;49.246;9.106;2022-12-18T03:00:19;-7.60;99.90
19586;DHT22;9939;49.246;9.106;2022-12-18T03:02:56;-7.60;99.90
19586;DHT22;9939;49.246;9.106;2022-12-18T03:05:40;-7.40;99.90
19586;DHT22;9939;49.246;9.106;2022-12-18T03:08:12;-7.50;99.90
19586;DHT22;9939;49.246;9.106;2022-12-18T03:10:45;-7.50;99.90
19586;DHT22;9939;49.246;9.106;2022-12-18T03:13:25;-7.50;99.90
19586;DHT22;9939;49.246;9.106;2022-12-18T03:15:57;-7.50;99.90
19586;DHT22;9939;49.246;9.106;2022-12-18T03:18:29;-7.40;99.90
19586;DHT22;9939;49.246;9.106;2022-12-18T03:20:58;-7.40;99.90
19586;DHT22;9939;49.246;9.106;2022-12-18T03:23:27;-7.40;99.90
19586;DHT22;9939;49.246;9.106;2022-12-18T03:25:56;-7.40;99.90
19586;DHT22;9939;49.246;9.106;2022-12-18T03:28:30;-7.40;99.90
19586;DHT22;9939;49.246;9.106;2022-12-18T03:31:02;-7.30;99.90
19586;DHT22;9939;49.246;9.106;2022-12-18T03:35:57;-7.20;99.90
19586;DHT22;9939;49.246;9.106;2022-12-18T03:38:24;-7.30;99.90
19586;DHT22;9939;49.246;9.106;2022-12-18T03:40:56;-7.40;99.90
19586;DHT22;9939;49.246;9.106;2022-12-18T03:43:36;-7.40;99.90
19586;DHT22;9939;49.246;9.106;2022-12-18T03:46:11;-7.40;99.90
19586;DHT22;9939;49.246;9.106;2022-12-18T03:48:51;-7.50;99.90
19586;DHT22;9939;49.246;9.106;2022-12-18T03:54:00;-7.50;99.90
19586;DHT22;9939;49.246;9.106;2022-12-18T03:56:32;-7.50;99.90
19586;DHT22;9939;49.246;9.106;2022-12-18T03:59:00;-7.60;99.90
19586;DHT22;9939;49.246;9.106;2022-12-18T04:01:31;-7.60;99.90
19586;DHT22;9939;49.246;9.106;2022-12-18T04:04:00;-7.60;99.90
19586;DHT22;9939;49.246;9.106;2022-12-18T04:06:31;-7.60;99.90
19586;DHT22;9939;49.246;9.106;2022-12-18T04:09:02;-7.60;99.90
19586;DHT22;9939;49.246;9.106;2022-12-18T04:11:31;-7.50;99.90
19586;DHT22;9939;49.246;9.106;2022-12-18T04:14:00;-7.50;99.90
19586;DHT22;9939;49.246;9.106;2022-12-18T04:16:32;-7.60;99.90
19586;DHT22;9939;49.246;9.106;2022-12-18T04:19:02;-7.60;99.90
19586;DHT22;9939;49.246;9.106;2022-12-18T04:21:35;-7.50;99.90
19586;DHT22;9939;49.246;9.106;2022-12-18T04:24:02;-7.50;99.90
19586;DHT22;9939;49.246;9.106;2022-12-18T04:26:29;-7.50;99.90
19586;DHT22;9939;49.246;9.106;2022-12-18T04:29:17;-7.60;99.90
19586;DHT22;9939;49.246;9.106;2022-12-18T04:31:43;-7.60;99.90
19586;DHT22;9939;49.246;9.106;2022-12-18T04:34:11;-7.60;99.90
19586;DHT22;9939;49.246;9.106;2022-12-18T04:36:44;-7.60;99.90
19586;DHT22;9939;49.246;9.106;2022-12-18T04:39:12;-7.60;99.90
19586;DHT22;9939;49.246;9.106;2022-12-18T04:41:43;-7.60;99.90
19586;DHT22;9939;49.246;9.106;2022-12-18T04:44:11;-7.60;99.90
19586;DHT22;9939;49.246;9.106;2022-12-18T04:46:38;-7.60;99.90
19586;DHT22;9939;49.246;9.106;2022-12-18T04:49:05;-7.60;99.90
19586;DHT22;9939;49.246;9.106;2022-12-18T04:51:32;-7.70;99.90
19586;DHT22;9939;49.246;9.106;2022-12-18T04:53:59;-7.70;99.90
19586;DHT22;9939;49.246;9.106;2022-12-18T04:56:25;-7.80;99.90
19586;DHT22;9939;49.246;9.106;2022-12-18T04:58:52;-7.70;99.90
19586;DHT22;9939;49.246;9.106;2022-12-18T05:01:19;-7.70;99.90
19586;DHT22;9939;49.246;9.106;2022-12-18T05:03:46;-7.80;99.90
19586;DHT22;9939;49.246;9.106;2022-12-18T05:06:13;-7.70;99.90
19586;DHT22;9939;49.246;9.106;2022-12-18T05:08:40;-7.80;99.90
19586;DHT22;9939;49.246;9.106;2022-12-18T05:11:08;-7.80;99.90
19586;DHT22;9939;49.246;9.106;2022-12-18T05:13:36;-7.90;99.90
19586;DHT22;9939;49.246;9.106;2022-12-18T05:16:05;-8.00;99.90
19586;DHT22;9939;49.246;9.106;2022-12-18T05:18:32;-7.90;99.90
19586;DHT22;9939;49.246;9.106;2022-12-18T05:20:59;-8.00;99.90
19586;DHT22;9939;49.246;9.106;2022-12-18T05:23:26;-8.10;99.90
19586;DHT22;9939;49.246;9.106;2022-12-18T05:25:54;-8.10;99.90
19586;DHT22;9939;49.246;9.106;2022-12-18T05:28:22;-8.20;99.90
19586;DHT22;9939;49.246;9.106;2022-12-18T05:30:53;-8.30;99.90
19586;DHT22;9939;49.246;9.106;2022-12-18T05:33:21;-8.20;99.90
19586;DHT22;9939;49.246;9.106;2022-12-18T05:35:52;-8.20;99.90
19586;DHT22;9939;49.246;9.106;2022-12-18T05:38:19;-8.30;99.90
19586;DHT22;9939;49.246;9.106;2022-12-18T05:40:47;-8.20;99.90
19586;DHT22;9939;49.246;9.106;2022-12-18T05:43:14;-8.30;99.90
19586;DHT22;9939;49.246;9.106;2022-12-18T05:45:47;-8.30;99.90
19586;DHT22;9939;49.246;9.106;2022-12-18T05:48:14;-8.20;99.90
19586;DHT22;9939;49.246;9.106;2022-12-18T05:50:42;-8.30;99.90
19586;DHT22;9939;49.246;9.106;2022-12-18T05:53:09;-8.20;99.90
19586;DHT22;9939;49.246;9.106;2022-12-18T05:55:38;-8.30;99.90
19586;DHT22;9939;49.246;9.106;2022-12-18T05:58:05;-8.20;99.90
19586;DHT22;9939;49.246;9.106;2022-12-18T06:00:33;-8.40;99.90
19586;DHT22;9939;49.246;9.106;2022-12-18T06:03:01;-8.40;99.90
19586;DHT22;9939;49.246;9.106;2022-12-18T06:05:28;-8.40;99.90
19586;DHT22;9939;49.246;9.106;2022-12-18T06:07:55;-8.50;99.90
19586;DHT22;9939;49.246;9.106;2022-12-18T06:10:22;-8.40;99.90
19586;DHT22;9939;49.246;9.106;2022-12-18T06:12:48;-8.50;99.90
19586;DHT22;9939;49.246;9.106;2022-12-18T06:15:15;-8.50;99.90
19586;DHT22;9939;49.246;9.106;2022-12-18T06:17:42;-8.60;99.90
19586;DHT22;9939;49.246;9.106;2022-12-18T06:20:10;-8.50;99.90
19586;DHT22;9939;49.246;9.106;2022-12-18T06:22:37;-8.50;99.90
19586;DHT22;9939;49.246;9.106;2022-12-18T06:25:04;-8.60;99.90
19586;DHT22;9939;49.246;9.106;2022-12-18T06:27:31;-8.60;99.90
19586;DHT22;9939;49.246;9.106;2022-12-18T06:30:00;-8.70;99.90
19586;DHT22;9939;49.246;9.106;2022-12-18T06:32:27;-8.60;99.90
19586;DHT22;9939;49.246;9.106;2022-12-18T06:34:53;-8.60;99.90
19586;DHT22;9939;49.246;9.106;2022-12-18T06:37:22;-8.70;99.90
19586;DHT22;9939;49.246;9.106;2022-12-18T06:39:53;-8.70;99.90
19586;DHT22;9939;49.246;9.106;2022-12-18T06:42:23;-8.70;99.90
19586;DHT22;9939;49.246;9.106;2022-12-18T06:44:50;-8.60;99.90
19586;DHT22;9939;49.246;9.106;2022-12-18T06:47:17;-8.70;99.90
19586;DHT22;9939;49.246;9.106;2022-12-18T06:49:44;-8.60;99.90
19586;DHT22;9939;49.246;9.106;2022-12-18T06:52:11;-8.60;99.90
19586;DHT22;9939;49.246;9.106;2022-12-18T06:54:38;-8.70;99.90
19586;DHT22;9939;49.246;9.106;2022-12-18T06:57:04;-8.70;99.90
19586;DHT22;9939;49.246;9.106;2022-12-18T06:59:31;-8.80;99.90
19586;DHT22;9939;49.246;9.106;2022-12-18T07:01:58;-8.70;99.90
19586;DHT22;9939;49.246;9.106;2022-12-18T07:04:29;-8.70;99.90
19586;DHT22;9939;49.246;9.106;2022-12-18T07:06:56;-8.60;99.90
19586;DHT22;9939;49.246;9.106;2022-12-18T07:09:24;-8.60;99.90
19586;DHT22;9939;49.246;9.106;2022-12-18T07:11:51;-8.60;99.90
19586;DHT22;9939;49.246;9.106;2022-12-18T07:14:18;-8.60;99.90
19586;DHT22;9939;49.246;9.106;2022-12-18T07:16:45;-8.60;99.90
19586;DHT22;9939;49.246;9.106;2022-12-18T07:19:12;-8.60;99.90
19586;DHT22;9939;49.246;9.106;2022-12-18T07:21:39;-8.60;99.90
19586;DHT22;9939;49.246;9.106;2022-12-18T07:24:06;-8.50;99.90
19586;DHT22;9939;49.246;9.106;2022-12-18T07:26:33;-8.50;99.90
19586;DHT22;9939;49.246;9.106;2022-12-18T07:29:00;-8.40;99.90
19586;DHT22;9939;49.246;9.106;2022-12-18T07:31:26;-8.30;99.90
19586;DHT22;9939;49.246;9.106;2022-12-18T07:33:54;-8.30;99.90
19586;DHT22;9939;49.246;9.106;2022-12-18T07:36:24;-8.40;99.90
19586;DHT22;9939;49.246;9.106;2022-12-18T07:38:51;-8.30;99.90
19586;DHT22;9939;49.246;9.106;2022-12-18T07:41:19;-8.20;99.90
19586;DHT22;9939;49.246;9.106;2022-12-18T07:43:46;-8.30;99.90
19586;DHT22;9939;49.246;9.106;2022-12-18T07:46:13;-8.30;99.90
19586;DHT22;9939;49.246;9.106;2022-12-18T07:48:41;-8.20;99.90
19586;DHT22;9939;49.246;9.106;2022-12-18T07:51:12;-8.20;99.90
19586;DHT22;9939;49.246;9.106;2022-12-18T07:53:40;-8.20;99.90
19586;DHT22;9939;49.246;9.106;2022-12-18T07:56:09;-8.10;99.90
19586;DHT22;9939;49.246;9.106;2022-12-18T07:58:53;-8.00;99.90
19586;DHT22;9939;49.246;9.106;2022-12-18T08:01:20;-8.00;99.90
19586;DHT22;9939;49.246;9.106;2022-12-18T08:03:47;-7.90;99.90
19586;DHT22;9939;49.246;9.106;2022-12-18T08:06:16;-7.80;99.90
19586;DHT22;9939;49.246;9.106;2022-12-18T08:08:43;-7.70;99.90
19586;DHT22;9939;49.246;9.106;2022-12-18T08:11:10;-7.70;99.90
19586;DHT22;9939;49.246;9.106;2022-12-18T08:13:37;-7.70;99.90
19586;DHT22;9939;49.246;9.106;2022-12-18T08:16:05;-7.70;99.90
19586;DHT22;9939;49.246;9.106;2022-12-18T08:18:34;-7.60;99.90
19586;DHT22;9939;49.246;9.106;2022-12-18T08:21:11;-7.50;99.90
19586;DHT22;9939;49.246;9.106;2022-12-18T08:23:38;-7.40;99.90
19586;DHT22;9939;49.246;9.106;2022-12-18T08:26:09;-7.40;99.90
19586;DHT22;9939;49.246;9.106;2022-12-18T08:28:36;-7.40;99.90
19586;DHT22;9939;49.246;9.106;2022-12-18T08:31:03;-7.40;99.90
19586;DHT22;9939;49.246;9.106;2022-12-18T08:33:30;-7.20;99.90
19586;DHT22;9939;49.246;9.106;2022-12-18T08:35:58;-7.20;99.90
19586;DHT22;9939;49.246;9.106;2022-12-18T08:38:25;-7.20;99.90
19586;DHT22;9939;49.246;9.106;2022-12-18T08:41:02;-7.10;99.90
19586;DHT22;9939;49.246;9.106;2022-12-18T08:43:29;-7.00;99.90
19586;DHT22;9939;49.246;9.106;2022-12-18T08:46:17;-6.90;99.90
19586;DHT22;9939;49.246;9.106;2022-12-18T08:48:44;-6.80;99.90
19586;DHT22;9939;49.246;9.106;2022-12-18T08:51:11;-6.10;99.90
19586;DHT22;9939;49.246;9.106;2022-12-18T08:53:40;-5.00;99.90
19586;DHT22;9939;49.246;9.106;2022-12-18T08:56:08;-4.20;99.90
19586;DHT22;9939;49.246;9.106;2022-12-18T08:58:35;-3.70;99.90
19586;DHT22;9939;49.246;9.106;2022-12-18T09:01:02;-3.30;99.90
19586;DHT22;9939;49.246;9.106;2022-12-18T09:03:31;-3.00;99.90
19586;DHT22;9939;49.246;9.106;2022-12-18T09:05:58;-2.90;99.90
19586;DHT22;9939;49.246;9.106;2022-12-18T09:08:26;-2.80;99.90
19586;DHT22;9939;49.246;9.106;2022-12-18T09:10:53;-2.90;99.90
19586;DHT22;9939;49.246;9.106;2022-12-18T09:13:20;-2.90;99.90
19586;DHT22;9939;49.246;9.106;2022-12-18T09:15:48;-2.40;99.90
19586;DHT22;9939;49.246;9.106;2022-12-18T09:18:16;-2.00;99.90
19586;DHT22;9939;49.246;9.106;2022-12-18T09:20:43;-1.50;99.90
19586;DHT22;9939;49.246;9.106;2022-12-18T09:23:10;-0.60;99.90
19586;DHT22;9939;49.246;9.106;2022-12-18T09:25:37;-0.80;99.90
19586;DHT22;9939;49.246;9.106;2022-12-18T09:28:17;-0.50;99.90
19586;DHT22;9939;49.246;9.106;2022-12-18T09:30:48;0.00;99.90
19586;DHT22;9939;49.246;9.106;2022-12-18T09:33:16;0.20;99.90
19586;DHT22;9939;49.246;9.106;2022-12-18T09:35:43;0.30;99.90
19586;DHT22;9939;49.246;9.106;2022-12-18T09:38:11;0.00;99.90
19586;DHT22;9939;49.246;9.106;2022-12-18T09:40:46;0.40;99.90
19586;DHT22;9939;49.246;9.106;2022-12-18T09:43:22;0.20;99.90
19586;DHT22;9939;49.246;9.106;2022-12-18T09:45:51;0.40;99.90
19586;DHT22;9939;49.246;9.106;2022-12-18T09:48:21;0.50;99.90
19586;DHT22;9939;49.246;9.106;2022-12-18T09:50:50;0.70;99.90
19586;DHT22;9939;49.246;9.106;2022-12-18T09:53:19;1.20;99.90
19586;DHT22;9939;49.246;9.106;2022-12-18T09:55:46;1.20;99.90
19586;DHT22;9939;49.246;9.106;2022-12-18T09:58:16;1.70;99.90
19586;DHT22;9939;49.246;9.106;2022-12-18T10:00:43;2.10;99.90
19586;DHT22;9939;49.246;9.106;2022-12-18T10:03:12;1.60;99.90
19586;DHT22;9939;49.246;9.106;2022-12-18T10:10:38;1.70;99.90
19586;DHT22;9939;49.246;9.106;2022-12-18T10:13:09;1.80;99.90
19586;DHT22;9939;49.246;9.106;2022-12-18T10:15:40;1.90;99.90
19586;DHT22;9939;49.246;9.106;2022-12-18T10:20:54;2.30;99.90
19586;DHT22;9939;49.246;9.106;2022-12-18T10:25:53;2.20;99.90
19586;DHT22;9939;49.246;9.106;2022-12-18T10:28:22;2.60;99.90
19586;DHT22;9939;49.246;9.106;2022-12-18T10:30:50;2.50;99.90
19586;DHT22;9939;49.246;9.106;2022-12-18T10:33:19;2.80;99.90
19586;DHT22;9939;49.246;9.106;2022-12-18T10:35:47;2.90;99.90
19586;DHT22;9939;49.246;9.106;2022-12-18T10:43:36;2.80;99.90
19586;DHT22;9939;49.246;9.106;2022-12-18T10:48:34;3.20;99.90
19586;DHT22;9939;49.246;9.106;2022-12-18T10:51:03;3.10;99.90
19586;DHT22;9939;49.246;9.106;2022-12-18T10:53:39;2.70;99.90
19586;DHT22;9939;49.246;9.106;2022-12-18T10:56:06;2.30;99.90
19586;DHT22;9939;49.246;9.106;2022-12-18T10:58:34;2.10;99.90
19586;DHT22;9939;49.246;9.106;2022-12-18T11:01:03;1.70;99.90
19586;DHT22;9939;49.246;9.106;2022-12-18T11:03:32;1.70;99.90
19586;DHT22;9939;49.246;9.106;2022-12-18T11:06:18;1.70;99.90
19586;DHT22;9939;49.246;9.106;2022-12-18T11:11:38;1.30;99.90
19586;DHT22;9939;49.246;9.106;2022-12-18T11:14:18;1.30;99.90
19586;DHT22;9939;49.246;9.106;2022-12-18T11:16:47;1.70;99.90
19586;DHT22;9939;49.246;9.106;2022-12-18T11:19:35;2.10;99.90
19586;DHT22;9939;49.246;9.106;2022-12-18T11:25:23;3.00;99.90
19586;DHT22;9939;49.246;9.106;2022-12-18T11:28:05;2.60;99.90
19586;DHT22;9939;49.246;9.106;2022-12-18T11:30:33;2.50;99.90
19586;DHT22;9939;49.246;9.106;2022-12-18T11:38:11;2.50;99.90
19586;DHT22;9939;49.246;9.106;2022-12-18T11:40:40;2.20;99.90
19586;DHT22;9939;49.246;9.106;2022-12-18T11:45:35;1.60;99.90
19586;DHT22;9939;49.246;9.106;2022-12-18T11:48:12;1.10;99.90
19586;DHT22;9939;49.246;9.106;2022-12-18T11:50:46;1.40;99.90
19586;DHT22;9939;49.246;9.106;2022-12-18T11:53:15;1.30;99.90
19586;DHT22;9939;49.246;9.106;2022-12-18T11:55:50;1.50;99.90
19586;DHT22;9939;49.246;9.106;2022-12-18T12:01:09;1.70;99.90
19586;DHT22;9939;49.246;9.106;2022-12-18T12:16:31;0.50;99.90
19586;DHT22;9939;49.246;9.106;2022-12-18T12:19:02;0.70;99.90
19586;DHT22;9939;49.246;9.106;2022-12-18T12:31:57;0.90;99.90
19586;DHT22;9939;49.246;9.106;2022-12-18T12:39:40;0.70;99.90
19586;DHT22;9939;49.246;9.106;2022-12-18T12:45:18;0.60;99.90
19586;DHT22;9939;49.246;9.106;2022-12-18T12:47:47;0.70;99.90
19586;DHT22;9939;49.246;9.106;2022-12-18T12:50:16;0.60;99.90
19586;DHT22;9939;49.246;9.106;2022-12-18T12:52:45;0.60;99.90
19586;DHT22;9939;49.246;9.106;2022-12-18T12:55:17;0.60;99.90
19586;DHT22;9939;49.246;9.106;2022-12-18T13:01:09;0.80;99.90
19586;DHT22;9939;49.246;9.106;2022-12-18T13:03:32;0.50;99.90
19586;DHT22;9939;49.246;9.106;2022-12-18T13:06:07;0.80;99.90
19586;DHT22;9939;49.246;9.106;2022-12-18T13:19:43;0.40;99.90
19586;DHT22;9939;49.246;9.106;2022-12-18T13:22:23;0.40;99.90
19586;DHT22;9939;49.246;9.106;2022-12-18T13:24:50;0.20;99.90
19586;DHT22;9939;49.246;9.106;2022-12-18T13:33:18;0.00;99.90
19586;DHT22;9939;49.246;9.106;2022-12-18T13:35:39;0.10;99.90
19586;DHT22;9939;49.246;9.106;2022-12-18T13:43:24;0.00;99.90
19586;DHT22;9939;49.246;9.106;2022-12-18T13:46:04;-0.20;99.90
19586;DHT22;9939;49.246;9.106;2022-12-18T13:48:33;-0.40;99.90
19586;DHT22;9939;49.246;9.106;2022-12-18T13:51:07;-0.40;99.90
19586;DHT22;9939;49.246;9.106;2022-12-18T13:53:42;-0.70;99.90
19586;DHT22;9939;49.246;9.106;2022-12-18T13:56:14;-0.70;99.90
19586;DHT22;9939;49.246;9.106;2022-12-18T13:58:44;-0.80;99.90
19586;DHT22;9939;49.246;9.106;2022-12-18T14:01:23;-0.80;99.90
19586;DHT22;9939;49.246;9.106;2022-12-18T14:03:51;-0.80;99.90
19586;DHT22;9939;49.246;9.106;2022-12-18T14:06:34;-0.80;99.90
19586;DHT22;9939;49.246;9.106;2022-12-18T14:09:02;-0.90;99.90
19586;DHT22;9939;49.246;9.106;2022-12-18T14:11:30;-1.00;99.90
19586;DHT22;9939;49.246;9.106;2022-12-18T14:13:57;-1.00;99.90
19586;DHT22;9939;49.246;9.106;2022-12-18T14:16:24;-1.10;99.90
19586;DHT22;9939;49.246;9.106;2022-12-18T14:18:57;-1.10;99.90
19586;DHT22;9939;49.246;9.106;2022-12-18T14:21:35;-1.20;99.90
19586;DHT22;9939;49.246;9.106;2022-12-18T14:24:06;-1.20;99.90
19586;DHT22;9939;49.246;9.106;2022-12-18T14:26:33;-1.40;99.90
19586;DHT22;9939;49.246;9.106;2022-12-18T14:29:01;-1.40;99.90
19586;DHT22;9939;49.246;9.106;2022-12-18T14:31:28;-1.50;99.90
19586;DHT22;9939;49.246;9.106;2022-12-18T14:33:56;-1.50;99.90
19586;DHT22;9939;49.246;9.106;2022-12-18T14:36:24;-1.50;99.90
19586;DHT22;9939;49.246;9.106;2022-12-18T14:38:52;-1.60;99.90
19586;DHT22;9939;49.246;9.106;2022-12-18T14:41:20;-1.60;99.90
19586;DHT22;9939;49.246;9.106;2022-12-18T14:43:48;-1.70;99.90
19586;DHT22;9939;49.246;9.106;2022-12-18T14:48:55;-1.70;99.90
19586;DHT22;9939;49.246;9.106;2022-12-18T14:51:23;-1.80;99.90
19586;DHT22;9939;49.246;9.106;2022-12-18T14:53:53;-1.90;99.90
19586;DHT22;9939;49.246;9.106;2022-12-18T14:56:29;-2.10;99.90
19586;DHT22;9939;49.246;9.106;2022-12-18T14:59:00;-2.00;99.90
19586;DHT22;9939;49.246;9.106;2022-12-18T15:01:38;-2.20;99.90
19586;DHT22;9939;49.246;9.106;2022-12-18T15:04:23;-2.30;99.90
19586;DHT22;9939;49.246;9.106;2022-12-18T15:07:02;-2.50;99.90
19586;DHT22;9939;49.246;9.106;2022-12-18T15:09:29;-2.30;99.90
19586;DHT22;9939;49.246;9.106;2022-12-18T15:11:57;-2.40;99.90
19586;DHT22;9939;49.246;9.106;2022-12-18T15:16:54;-2.50;99.90
19586;DHT22;9939;49.246;9.106;2022-12-18T15:19:21;-2.70;99.90
19586;DHT22;9939;49.246;9.106;2022-12-18T15:21:48;-2.80;99.90
19586;DHT22;9939;49.246;9.106;2022-12-18T15:24:20;-2.90;99.90
19586;DHT22;9939;49.246;9.106;2022-12-18T15:26:49;-2.90;99.90
19586;DHT22;9939;49.246;9.106;2022-12-18T15:29:20;-2.90;99.90
19586;DHT22;9939;49.246;9.106;2022-12-18T15:34:44;-3.10;99.90
19586;DHT22;9939;49.246;9.106;2022-12-18T15:37:11;-3.20;99.90
19586;DHT22;9939;49.246;9.106;2022-12-18T15:39:38;-3.30;99.90
19586;DHT22;9939;49.246;9.106;2022-12-18T15:42:07;-3.20;99.90
19586;DHT22;9939;49.246;9.106;2022-12-18T15:44:52;-3.20;99.90
19586;DHT22;9939;49.246;9.106;2022-12-18T15:47:19;-3.20;99.90
19586;DHT22;9939;49.246;9.106;2022-12-18T15:49:46;-3.30;99.90
19586;DHT22;9939;49.246;9.106;2022-12-18T15:52:13;-3.40;99.90
19586;DHT22;9939;49.246;9.106;2022-12-18T15:54:40;-3.30;99.90
19586;DHT22;9939;49.246;9.106;2022-12-18T15:57:25;-3.40;99.90
19586;DHT22;9939;49.246;9.106;2022-12-18T15:59:54;-3.50;99.90
19586;DHT22;9939;49.246;9.106;2022-12-18T16:02:23;-3.40;99.90
19586;DHT22;9939;49.246;9.106;2022-12-18T16:04:51;-3.50;99.90
19586;DHT22;9939;49.246;9.106;2022-12-18T16:07:18;-3.60;99.90
19586;DHT22;9939;49.246;9.106;2022-12-18T16:09:52;-3.60;99.90
19586;DHT22;9939;49.246;9.106;2022-12-18T16:12:21;-3.60;99.90
19586;DHT22;9939;49.246;9.106;2022-12-18T16:14:48;-3.50;99.90
19586;DHT22;9939;49.246;9.106;2022-12-18T16:17:15;-3.60;99.90
19586;DHT22;9939;49.246;9.106;2022-12-18T16:19:43;-3.60;99.90
19586;DHT22;9939;49.246;9.106;2022-12-18T16:24:46;-3.50;99.90
19586;DHT22;9939;49.246;9.106;2022-12-18T16:27:13;-3.50;99.90
19586;DHT22;9939;49.246;9.106;2022-12-18T16:29:40;-3.50;99.90
19586;DHT22;9939;49.246;9.106;2022-12-18T16:32:08;-3.40;99.90
19586;DHT22;9939;49.246;9.106;2022-12-18T16:34:38;-3.40;99.90
19586;DHT22;9939;49.246;9.106;2022-12-18T16:37:05;-3.40;99.90
19586;DHT22;9939;49.246;9.106;2022-12-18T16:39:33;-3.40;99.90
19586;DHT22;9939;49.246;9.106;2022-12-18T16:42:01;-3.40;99.90
19586;DHT22;9939;49.246;9.106;2022-12-18T16:44:32;-3.30;99.90
19586;DHT22;9939;49.246;9.106;2022-12-18T16:46:59;-3.30;99.90
19586;DHT22;9939;49.246;9.106;2022-12-18T16:49:29;-3.30;99.90
19586;DHT22;9939;49.246;9.106;2022-12-18T16:51:56;-3.30;99.90
19586;DHT22;9939;49.246;9.106;2022-12-18T16:54:25;-3.20;99.90
19586;DHT22;9939;49.246;9.106;2022-12-18T16:56:56;-3.20;99.90
19586;DHT22;9939;49.246;9.106;2022-12-18T16:59:24;-3.20;99.90
19586;DHT22;9939;49.246;9.106;2022-12-18T17:01:52;-3.30;99.90
19586;DHT22;9939;49.246;9.106;2022-12-18T17:04:21;-3.40;99.90
19586;DHT22;9939;49.246;9.106;2022-12-18T17:06:48;-3.30;99.90
19586;DHT22;9939;49.246;9.106;2022-12-18T17:09:18;-3.30;99.90
19586;DHT22;9939;49.246;9.106;2022-12-18T17:11:49;-3.40;99.90
19586;DHT22;9939;49.246;9.106;2022-12-18T17:14:16;-3.30;99.90
19586;DHT22;9939;49.246;9.106;2022-12-18T17:16:44;-3.30;99.90
19586;DHT22;9939;49.246;9.106;2022-12-18T17:19:12;-3.30;99.90
19586;DHT22;9939;49.246;9.106;2022-12-18T17:21:43;-3.40;99.90
19586;DHT22;9939;49.246;9.106;2022-12-18T17:24:10;-3.30;99.90
19586;DHT22;9939;49.246;9.106;2022-12-18T17:26:37;-3.30;99.90
19586;DHT22;9939;49.246;9.106;2022-12-18T17:29:04;-3.30;99.90
19586;DHT22;9939;49.246;9.106;2022-12-18T17:31:32;-3.40;99.90
19586;DHT22;9939;49.246;9.106;2022-12-18T17:34:00;-3.30;99.90
19586;DHT22;9939;49.246;9.106;2022-12-18T17:36:27;-3.30;99.90
19586;DHT22;9939;49.246;9.106;2022-12-18T17:38:55;-3.40;99.90
19586;DHT22;9939;49.246;9.106;2022-12-18T17:41:23;-3.40;99.90
19586;DHT22;9939;49.246;9.106;2022-12-18T17:43:51;-3.40;99.90
19586;DHT22;9939;49.246;9.106;2022-12-18T17:46:18;-3.50;99.90
19586;DHT22;9939;49.246;9.106;2022-12-18T17:48:45;-3.50;99.90
19586;DHT22;9939;49.246;9.106;2022-12-18T17:51:13;-3.50;99.90
19586;DHT22;9939;49.246;9.106;2022-12-18T17:53:40;-3.60;99.90
19586;DHT22;9939;49.246;9.106;2022-12-18T17:56:09;-3.50;99.90
19586;DHT22;9939;49.246;9.106;2022-12-18T17:58:37;-3.50;99.90
19586;DHT22;9939;49.246;9.106;2022-12-18T18:01:05;-3.50;99.90
19586;DHT22;9939;49.246;9.106;2022-12-18T18:03:32;-3.50;99.90
19586;DHT22;9939;49.246;9.106;2022-12-18T18:06:00;-3.60;99.90
19586;DHT22;9939;49.246;9.106;2022-12-18T18:08:27;-3.60;99.90
19586;DHT22;9939;49.246;9.106;2022-12-18T18:10:54;-3.60;99.90